Date,TemperatureHighF,TemperatureAvgF,TemperatureLowF,DewpointHighF,DewpointAvgF,DewpointLowF,HumidityHigh,HumidityAvg,HumidityLow,PressureMaxIn,PressureMinIn,WindSpeedMaxMPH,WindSpeedAvgMPH,GustSpeedMaxMPH,PrecipitationSumIn
2013-1-1,28,20,10,25,15,5,90,81,71,30.24,30.10,7,4,12,0.01
2013-1-2,25,16,6,13,9,2,86,75,55,30.27,30.19,4,1,9,0.00
2013-1-3,34,25,15,27,19,11,85,78,73,30.37,30.19,9,3,15,0.02
2013-1-4,36,26,15,25,20,11,87,77,63,30.40,30.31,7,3,13,0.01
2013-1-5,39,32,23,30,25,18,85,76,66,30.32,30.09,7,3,12,0.01
2013-1-6,37,30,21,31,24,18,88,78,71,30.38,30.03,12,6,22,0.01
2013-1-7,38,28,19,27,22,16,89,78,60,30.40,30.17,7,3,15,0.00
2013-1-8,47,36,28,34,28,24,86,73,53,30.22,30.14,7,4,13,0.00
2013-1-9,51,43,34,38,35,30,90,76,60,30.49,30.15,6,3,13,0.02
2013-1-10,53,42,33,51,36,26,94,81,58,30.49,29.82,11,6,23,0.15
2013-1-11,59,55,50,57,50,47,95,83,70,29.90,29.76,10,6,20,0.27
2013-1-12,58,49,33,51,44,30,91,84,74,29.95,29.80,17,6,27,1.37
2013-1-13,33,25,18,30,20,12,90,83,73,30.32,29.85,15,10,21,1.25
2013-1-14,25,20,16,17,14,10,84,77,71,30.48,30.32,9,4,13,0.00
2013-1-15,29,24,17,23,18,13,86,77,66,30.42,30.12,9,3,14,0.00
2013-1-16,39,30,20,25,21,17,89,72,45,30.12,29.99,8,3,15,0.00
2013-1-17,37,33,24,30,25,20,85,75,61,30.47,30.10,10,4,16,0.00
2013-1-18,44,32,22,29,24,19,89,72,50,30.48,30.14,11,4,19,0.00
2013-1-19,54,46,37,38,34,29,75,63,53,30.06,29.89,12,7,24,0.00
2013-1-20,42,26,21,31,16,11,77,64,53,30.34,30.05,15,7,27,0.00
2013-1-21,21,16,11,15,4,-4,78,58,43,30.35,30.24,15,8,25,0.00
2013-1-22,17,12,7,3,-1,-4,73,56,43,30.45,30.35,8,4,16,0.00
2013-1-23,36,25,14,22,13,3,68,60,47,30.37,30.12,12,4,21,0.00
2013-1-24,27,20,11,13,7,1,68,56,43,30.61,30.30,12,6,20,0.00
2013-1-25,37,29,23,22,16,5,75,59,43,30.33,30.05,9,4,16,0.00
2013-1-26,35,26,16,21,14,9,74,62,43,30.39,30.18,8,3,12,0.00
2013-1-27,42,32,25,40,27,17,93,82,71,30.33,29.99,10,6,22,0.16
2013-1-28,60,53,42,57,51,40,94,91,88,29.99,29.89,9,6,20,0.09
2013-1-29,64,60,52,58,56,50,93,86,76,29.89,29.42,11,8,23,1.05
2013-1-30,52,40,26,50,36,16,94,83,66,29.79,29.34,15,9,30,1.21
2013-1-31,29,22,9,19,12,0,75,66,59,30.29,29.79,16,11,28,0.01
2013-2-1,23,14,7,16,4,-1,77,63,49,30.46,30.22,13,7,25,0.00
2013-2-2,33,26,21,25,19,14,87,75,67,30.22,30.03,13,6,20,0.01
2013-2-3,31,26,21,24,18,14,90,73,49,30.12,29.98,15,5,26,0.01
2013-2-4,50,34,25,34,25,19,83,70,51,30.03,29.77,12,6,19,0.00
2013-2-5,46,34,27,35,28,23,88,79,64,30.00,29.85,8,3,17,0.00
2013-2-6,47,38,26,32,30,23,91,71,55,30.23,30.10,7,4,13,0.00
2013-2-7,57,41,32,45,35,27,91,80,57,30.10,29.83,13,5,23,0.20
2013-2-8,37,32,29,34,27,24,90,82,75,30.38,29.97,12,7,21,0.13
2013-2-9,42,34,30,31,27,23,78,74,65,30.37,30.05,10,5,18,0.00
2013-2-10,53,44,37,50,40,30,93,87,57,30.06,29.61,11,7,26,0.71
2013-2-11,50,40,31,35,29,26,85,66,56,30.12,29.68,13,7,27,0.01
2013-2-12,41,33,26,31,28,23,91,80,63,30.14,29.92,5,2,10,0.00
2013-2-13,50,39,32,32,30,28,90,71,44,29.92,29.77,9,2,17,0.00
2013-2-14,49,40,34,37,32,28,83,73,58,30.02,29.78,11,5,22,0.00
2013-2-15,35,32,26,31,23,16,85,70,48,30.21,30.02,14,7,21,0.00
2013-2-16,31,24,18,18,14,11,79,66,48,30.22,30.13,10,5,16,0.00
2013-2-17,38,28,16,24,18,10,80,67,51,30.22,29.98,8,5,15,0.00
2013-2-18,54,42,32,46,35,23,91,76,63,29.98,29.53,15,8,30,0.25
2013-2-19,32,25,21,27,17,11,80,69,62,30.24,29.78,13,10,28,0.25
2013-2-20,24,20,12,18,11,6,78,68,58,30.40,30.24,11,5,17,0.00
2013-2-21,32,25,20,31,21,15,98,84,75,30.32,29.83,13,7,30,0.00
2013-2-22,36,32,27,32,28,20,94,87,76,30.03,29.79,9,3,17,0.27
2013-2-23,29,24,19,21,18,15,86,78,69,30.02,29.97,5,2,10,0.12
2013-2-24,40,28,15,26,20,12,90,74,51,30.14,29.99,4,1,8,0.13
2013-2-25,45,37,29,33,29,24,82,73,60,30.09,29.72,13,6,23,0.01
2013-2-26,39,35,33,37,33,30,94,90,78,29.72,29.36,15,6,27,1.01
2013-2-27,34,32,31,31,30,29,94,91,87,29.79,29.53,8,6,17,0.61
2013-2-28,35,33,32,32,30,29,93,90,88,30.05,29.79,10,6,14,0.03
2013-3-1,32,30,28,30,28,24,93,89,83,30.14,30.02,10,6,16,0.05
2013-3-2,31,27,23,25,21,14,87,76,51,30.19,30.13,12,7,18,0.01
2013-3-3,35,27,19,23,18,15,87,69,47,30.17,30.06,5,2,11,0.01
2013-3-4,38,34,29,29,26,21,81,71,64,30.08,29.84,15,7,26,0.01
2013-3-5,38,34,30,32,28,25,93,81,64,29.98,29.78,17,9,30,0.04
2013-3-6,31,29,28,27,25,23,88,82,78,30.33,29.98,16,10,29,0.01
2013-3-7,37,32,28,28,26,23,87,79,68,30.41,30.32,6,2,10,0.00
2013-3-8,48,38,28,35,30,24,87,74,58,30.45,30.26,9,4,16,0.00
2013-3-9,57,46,38,42,36,30,83,68,56,30.26,29.84,12,6,21,0.05
2013-3-10,62,54,49,51,45,37,93,72,54,29.84,29.64,12,6,23,0.25
2013-3-11,49,38,33,47,34,28,93,86,78,29.93,29.65,11,7,22,0.19
2013-3-12,44,35,29,33,27,24,88,72,57,30.14,29.93,16,7,29,0.01
2013-3-13,36,29,25,26,20,18,88,69,52,30.38,30.14,14,8,23,0.00
2013-3-14,42,32,23,30,25,20,89,73,55,30.37,30.12,9,3,17,0.00
2013-3-15,61,44,29,46,36,26,91,75,50,30.12,29.65,5,3,13,0.00
2013-3-16,56,42,35,48,37,29,93,82,73,30.06,29.61,11,6,17,0.00
2013-3-17,38,34,32,32,29,26,90,79,70,30.11,29.83,11,6,18,0.15
2013-3-18,43,37,32,37,33,25,93,86,67,29.95,29.65,13,6,19,0.30
2013-3-19,42,34,27,25,21,16,80,60,41,30.16,29.95,11,6,22,0.01
2013-3-20,34,28,22,23,15,9,75,59,43,30.21,30.08,14,8,25,0.00
2013-3-21,34,25,18,19,13,9,78,61,46,30.10,30.00,8,4,14,0.00
2013-3-22,41,32,21,24,20,16,87,61,42,30.06,29.99,6,2,11,0.00
2013-3-23,52,43,35,28,26,24,72,52,36,30.05,29.86,10,4,18,0.00
2013-3-24,40,32,30,31,29,26,94,87,57,29.89,29.49,14,8,26,0.08
2013-3-25,33,30,27,28,27,25,94,89,80,30.11,29.67,14,9,23,0.15
2013-3-26,37,33,30,28,26,25,85,78,66,30.31,30.11,8,5,14,0.42
2013-3-27,41,34,28,28,25,22,81,68,53,30.38,30.30,6,2,10,0.16
2013-3-28,52,38,24,33,27,21,91,68,46,30.39,30.27,6,2,9,0.00
2013-3-29,58,47,37,37,34,30,80,62,44,30.28,30.19,8,4,13,0.00
2013-3-30,56,47,35,45,38,-100,89,74,55,30.22,29.91,8,3,16,0.02
2013-3-31,61,51,45,48,44,34,92,78,56,29.91,29.82,9,4,17,0.02
2013-4-1,45,40,34,34,25,19,72,58,36,30.20,29.91,13,7,21,0.01
2013-4-2,46,36,26,23,20,16,77,55,30,30.33,30.20,7,3,14,0.00
2013-4-3,51,40,28,26,21,19,73,49,31,30.40,30.27,10,4,16,0.00
2013-4-4,59,46,32,28,22,18,72,41,23,30.27,30.01,6,3,11,0.00
2013-4-5,62,49,36,36,30,27,75,51,27,30.15,30.03,7,3,13,0.00
2013-4-6,72,58,45,44,37,28,62,46,33,30.08,29.74,14,8,28,0.00
2013-4-7,74,63,48,54,46,41,83,56,31,29.94,29.78,15,3,21,0.15
2013-4-8,74,65,57,60,56,52,88,75,62,29.90,29.75,10,6,23,0.15
2013-4-9,75,69,62,63,59,55,79,72,63,29.91,29.85,13,5,26,0.01
2013-4-10,79,68,51,67,61,48,92,81,65,29.85,29.63,12,6,23,0.67
2013-4-11,59,50,40,57,46,33,94,88,75,29.78,29.58,10,5,22,0.97
2013-4-12,43,41,36,35,33,29,79,73,64,29.96,29.68,12,5,21,0.01
2013-4-13,55,46,37,40,35,32,82,66,50,30.04,29.93,9,4,21,0.00
2013-4-14,75,61,47,51,45,39,78,59,38,29.97,29.68,11,6,24,0.02
2013-4-15,68,59,53,61,54,47,92,82,61,29.91,29.75,10,5,20,0.24
2013-4-16,53,48,45,50,45,42,93,89,83,30.16,29.87,9,5,19,1.18
2013-4-17,79,61,46,70,56,43,94,84,67,30.14,29.75,9,6,23,0.12
2013-4-18,74,62,42,65,57,36,95,87,73,29.75,29.56,12,6,23,2.41
2013-4-19,44,40,37,36,31,28,80,72,64,30.02,29.67,11,6,22,0.48
2013-4-20,49,40,30,33,30,26,87,67,47,30.37,30.02,7,3,12,0.00
2013-4-21,58,47,37,38,33,29,74,61,42,30.46,30.29,9,5,19,0.00
2013-4-22,70,56,41,46,40,34,76,56,37,30.29,30.03,6,4,14,0.00
2013-4-23,60,54,41,55,48,39,92,79,66,30.05,29.83,11,4,22,0.61
2013-4-24,49,42,37,39,35,33,91,78,54,30.23,29.93,11,6,21,0.76
2013-4-25,57,47,37,37,33,29,85,61,38,30.33,30.20,11,4,19,0.01
2013-4-26,63,52,42,47,40,34,76,64,50,30.39,30.28,7,3,16,0.00
2013-4-27,55,52,48,51,48,43,94,85,70,30.31,29.92,8,3,17,0.36
2013-4-28,59,55,53,54,52,50,95,91,84,29.92,29.84,10,2,17,0.63
2013-4-29,74,60,45,59,53,43,95,77,55,29.96,29.82,7,3,19,0.01
2013-4-30,84,71,58,63,58,54,86,66,43,29.97,29.83,6,4,13,0.01
2013-5-1,83,71,57,59,56,53,86,62,38,30.11,29.96,6,2,15,0.00
2013-5-2,75,65,56,64,58,53,92,79,60,30.12,30.03,6,2,11,0.42
2013-5-3,69,60,49,61,55,47,95,85,68,30.08,29.79,7,4,15,0.57
2013-5-4,56,51,47,53,48,45,94,92,90,30.02,29.85,5,1,14,0.72
2013-5-5,60,54,49,56,52,47,94,91,84,30.01,29.91,7,3,14,0.17
2013-5-6,66,58,53,58,54,50,93,85,73,29.99,29.92,4,2,11,0.06
2013-5-7,77,65,58,58,55,52,91,72,43,30.04,29.96,4,1,9,0.01
2013-5-8,80,67,53,57,53,47,93,66,31,30.04,29.97,3,1,7,0.00
2013-5-9,66,62,57,63,59,54,94,90,86,30.01,29.85,6,1,13,0.99
2013-5-10,67,59,53,59,55,49,94,87,74,29.97,29.84,9,3,16,0.10
2013-5-11,65,54,47,53,43,-100,93,73,37,30.12,29.96,12,5,27,0.03
2013-5-12,58,50,39,38,33,28,80,54,36,30.20,30.12,11,4,22,0.00
2013-5-13,68,54,38,41,37,33,89,58,29,30.22,30.08,4,1,10,0.00
2013-5-14,88,68,53,62,52,40,66,56,41,30.08,29.78,7,3,14,0.00
2013-5-15,87,76,64,65,59,53,68,56,44,29.93,29.81,7,4,20,0.00
2013-5-16,76,67,64,66,43,-100,88,74,57,29.96,29.84,5,2,13,0.00
2013-5-17,77,68,63,65,59,-100,94,80,62,30.00,29.95,6,2,16,0.00
2013-5-18,80,71,62,65,63,60,93,77,60,30.03,29.93,6,2,11,0.00
2013-5-19,87,74,62,74,67,60,93,78,64,29.94,29.79,7,3,17,0.00
2013-5-20,84,76,66,70,66,59,85,71,56,29.91,29.77,7,4,17,0.01
2013-5-21,81,70,62,68,64,60,93,81,61,29.89,29.72,6,4,16,0.66
2013-5-22,75,68,63,63,60,55,87,75,51,29.85,29.69,5,3,14,0.01
2013-5-23,63,59,51,57,52,44,89,80,76,30.24,29.85,9,4,20,0.02
2013-5-24,69,55,41,46,40,34,82,60,33,30.41,30.24,6,2,9,0.01
2013-5-25,59,54,50,51,46,40,83,74,64,30.38,30.22,10,3,18,0.05
2013-5-26,63,56,52,59,52,47,93,88,80,30.26,30.06,10,4,15,1.77
2013-5-27,79,65,61,68,61,57,94,87,68,30.06,29.80,8,2,16,0.84
2013-5-28,81,71,62,69,64,60,94,80,66,29.93,29.81,8,3,20,0.17
2013-5-29,85,76,64,69,65,59,86,70,58,29.99,29.89,7,3,17,0.01
2013-5-30,85,76,66,70,67,63,91,74,60,29.96,29.86,8,5,21,0.17
2013-5-31,78,70,62,71,66,60,93,86,72,29.92,29.79,6,4,16,0.75
2013-6-1,73,67,63,65,62,58,94,86,73,29.86,29.75,8,4,17,0.61
2013-6-2,66,62,59,59,57,54,90,85,76,30.03,29.85,6,3,13,0.03
2013-6-3,68,60,54,54,49,46,90,69,48,30.12,30.03,4,2,10,0.03
2013-6-4,73,65,55,57,54,49,84,68,54,30.10,30.03,6,2,12,0.00
2013-6-5,82,72,60,64,59,54,82,65,47,30.05,29.86,4,1,8,0.00
2013-6-6,80,72,66,64,61,59,89,71,51,29.88,29.80,9,3,18,0.00
2013-6-7,74,67,58,61,57,52,84,71,55,29.91,29.85,4,2,9,0.00
2013-6-8,79,68,55,60,56,52,89,67,44,29.99,29.90,5,1,11,0.00
2013-6-9,81,70,62,65,60,57,92,73,48,29.99,29.82,6,2,15,0.02
2013-6-10,78,68,62,64,61,60,94,80,56,29.91,29.78,5,2,12,0.03
2013-6-11,85,76,61,73,67,58,92,75,60,29.99,29.86,5,2,13,0.03
2013-6-12,92,82,73,74,72,69,90,72,55,29.94,29.69,9,3,20,0.02
2013-6-13,85,77,68,71,62,52,86,62,35,30.00,29.70,8,5,18,0.00
2013-6-14,82,72,59,58,55,50,82,58,35,30.11,29.96,5,2,11,0.00
2013-6-15,84,74,63,68,62,56,89,67,56,30.10,29.92,9,2,21,0.20
2013-6-16,79,71,66,72,67,64,94,88,77,30.06,29.94,9,1,21,0.50
2013-6-17,86,75,67,73,69,62,96,82,55,29.97,29.89,4,1,11,0.02
2013-6-18,86,75,63,69,64,60,94,71,50,30.00,29.90,3,1,8,0.00
2013-6-19,82,73,61,67,63,57,88,73,56,30.09,30.00,4,1,9,0.00
2013-6-20,88,77,68,69,66,63,88,71,43,30.16,30.08,5,2,9,0.00
2013-6-22,85,77,68,73,70,66,93,80,68,30.13,30.10,7,4,14,1.16
2013-6-23,77,71,66,71,66,64,93,87,78,30.10,30.01,7,2,16,0.32
2013-6-24,90,76,66,77,69,63,92,80,57,30.11,29.97,4,2,11,0.16
2013-6-25,90,79,72,76,71,67,90,79,63,30.01,29.83,5,2,13,0.00
2013-6-26,81,75,71,76,71,66,94,87,81,29.93,29.72,6,2,18,0.97
2013-6-27,89,80,73,74,71,67,96,77,53,29.86,29.77,8,3,17,0.01
2013-6-28,84,77,70,68,65,56,88,69,40,29.83,29.69,10,3,22,0.01
2013-6-29,73,69,65,65,63,60,92,81,69,29.72,29.64,5,2,12,0.26
2013-6-30,74,68,62,65,62,59,92,83,68,29.90,29.72,7,4,18,0.26
2013-7-1,74,67,62,63,59,56,91,76,64,29.98,29.90,5,3,12,0.08
2013-7-2,68,65,61,61,60,57,89,84,79,30.03,29.96,6,3,13,0.15
2013-7-3,79,67,61,61,60,58,94,80,48,30.09,30.01,3,1,7,0.13
2013-7-4,82,72,59,66,60,56,90,68,42,30.13,30.04,6,2,10,0.01
2013-7-5,81,73,65,68,66,63,95,80,61,30.12,30.03,6,1,10,0.00
2013-7-6,82,72,68,70,67,65,94,86,62,30.09,30.02,8,1,12,0.00
2013-7-7,88,75,64,73,67,61,91,77,59,30.09,30.00,4,1,10,0.00
2013-7-8,84,77,71,76,71,67,90,82,71,30.12,30.01,3,1,10,0.00
2013-7-9,91,83,75,77,74,70,86,74,58,30.05,29.94,4,1,9,0.00
2013-7-10,84,78,71,76,72,69,93,82,68,30.04,29.88,6,2,21,0.94
2013-7-11,81,72,64,66,62,59,90,70,48,30.08,29.99,5,2,14,0.14
2013-7-12,83,73,58,63,57,51,85,59,36,30.14,30.06,4,2,10,0.00
2013-7-13,83,74,61,66,62,57,89,67,52,30.13,30.05,8,2,12,0.00
2013-7-14,88,78,68,72,68,62,84,71,56,30.18,30.09,6,2,12,0.00
2013-7-15,88,79,73,75,72,69,89,79,65,30.27,30.17,4,1,10,0.00
2013-7-16,92,82,72,74,71,69,91,71,50,30.33,30.25,5,1,9,0.00
2013-7-17,93,83,72,75,73,70,93,73,51,30.35,30.20,2,0,6,0.00
2013-7-18,94,84,73,75,74,71,93,73,53,30.22,30.04,4,1,7,0.00
2013-7-19,93,84,75,76,74,71,89,73,57,30.04,29.88,6,2,12,0.00
2013-7-20,86,78,69,75,71,67,93,82,68,29.94,29.85,7,2,17,0.30
2013-7-21,81,74,69,73,70,67,95,88,72,29.97,29.85,3,1,9,0.01
2013-7-22,85,76,69,74,70,67,95,82,60,29.86,29.79,6,1,9,1.59
2013-7-23,86,78,69,74,69,62,93,76,53,29.91,29.78,6,2,13,0.02
2013-7-24,76,69,61,62,56,52,85,64,51,30.04,29.91,6,2,15,0.00
2013-7-25,79,68,54,62,57,51,90,69,49,30.14,30.04,5,1,9,0.00
2013-7-26,75,68,59,66,61,55,92,81,66,30.09,29.93,4,1,13,0.00
2013-7-27,72,65,55,66,56,48,92,74,50,30.00,29.94,9,3,20,0.01
2013-7-28,75,63,50,56,51,47,91,68,46,30.06,29.99,5,1,14,0.01
2013-7-29,79,67,53,62,56,50,92,71,46,30.18,30.06,3,0,7,0.00
2013-7-30,69,67,65,66,63,60,94,88,76,30.17,30.05,6,2,14,0.50
2013-7-31,77,71,66,71,68,63,96,89,80,30.06,29.98,6,1,12,0.01
2013-8-1,82,73,63,68,63,61,95,75,49,30.07,29.99,5,1,10,0.01
2013-8-2,78,71,64,71,66,61,91,85,78,30.01,29.94,6,1,9,0.01
2013-8-3,82,75,67,70,67,61,93,78,55,30.11,29.95,5,1,8,0.00
2013-8-4,78,69,57,63,58,54,93,71,50,30.20,30.12,3,0,7,0.00
2013-8-5,79,69,60,65,61,57,92,76,56,30.13,29.91,5,2,11,0.00
2013-8-6,82,73,67,74,69,64,94,87,73,29.94,29.87,4,1,9,0.00
2013-8-7,84,76,69,75,71,67,95,85,70,29.93,29.85,2,1,7,0.00
2013-8-8,81,74,68,73,70,66,95,88,78,29.97,29.89,4,1,8,0.00
2013-8-9,81,72,61,68,64,58,91,78,58,30.07,29.95,3,1,8,0.00
2013-8-10,83,74,66,70,65,61,92,76,51,30.14,30.07,6,1,10,0.00
2013-8-11,82,70,58,65,61,56,93,74,52,30.16,30.06,4,1,8,0.00
2013-8-12,81,71,63,73,66,61,94,85,70,30.09,29.91,4,1,7,0.26
2013-8-13,77,68,61,66,59,-100,94,78,53,30.14,29.93,6,2,14,0.01
2013-8-14,72,62,50,55,52,47,92,70,52,30.23,30.14,7,2,13,0.00
2013-8-15,73,59,52,56,42,-100,89,66,48,30.20,30.11,7,1,12,0.00
2013-8-16,75,65,57,57,52,-100,90,68,46,30.17,30.11,7,2,15,0.00
2013-8-17,79,67,57,62,56,-100,91,70,52,30.21,30.13,6,1,12,0.00
2013-8-18,84,72,58,66,61,55,91,72,49,30.18,30.09,3,1,9,0.00
2013-8-19,84,69,61,66,50,-100,94,73,53,30.15,30.05,5,1,9,0.00
2013-8-20,85,74,63,69,63,-100,92,73,53,30.14,30.05,3,0,8,0.00
2013-8-21,87,76,66,71,67,64,94,75,53,30.14,30.04,4,1,10,0.00
2013-8-22,88,76,68,73,68,65,93,78,59,30.11,30.03,8,2,16,0.00
2013-8-23,86,76,66,69,67,64,95,75,54,30.14,30.07,4,2,9,0.08
2013-8-24,87,76,67,70,64,-100,84,68,50,30.24,30.14,5,2,12,0.01
2013-8-25,88,76,64,67,64,61,90,67,44,30.29,30.19,4,1,9,0.00
2013-8-26,90,78,69,76,70,64,94,78,55,30.23,30.08,4,1,9,0.00
2013-8-27,90,78,71,75,71,69,93,81,54,30.09,30.01,4,1,14,0.00
2013-9-9,95,81,70,75,72,68,94,76,51,29.98,29.91,5,1,13,0.00
2013-9-10,97,84,72,74,71,68,93,69,39,30.10,29.98,5,1,11,0.00
2013-9-11,94,82,71,71,68,64,91,66,39,30.14,30.03,4,1,11,0.00
2013-9-12,82,73,60,69,64,52,92,74,45,30.09,29.96,8,2,15,0.19
2013-9-13,72,63,55,57,50,43,89,66,36,30.15,30.06,6,2,14,0.01
2013-9-14,74,61,49,49,44,-100,82,58,33,30.19,30.07,5,2,13,0.00
2013-9-15,75,60,50,60,50,45,84,71,45,30.10,30.00,5,1,9,0.00
2013-9-16,69,64,60,60,55,52,89,75,61,30.29,30.09,8,3,16,0.00
2013-9-17,75,64,54,57,53,49,85,69,49,30.29,30.11,6,3,14,0.00
2013-9-18,72,64,61,68,58,55,92,81,71,30.11,30.01,3,1,7,0.13
2013-9-19,90,79,71,73,70,68,91,76,53,30.01,29.87,5,2,14,0.01
2013-9-24,79,66,52,60,54,47,85,69,49,30.00,29.85,8,3,13,0.00
2013-9-25,82,72,61,64,61,58,89,70,49,29.91,29.83,5,2,12,0.00
2013-9-26,82,71,61,63,56,50,77,61,40,30.06,29.90,3,1,9,0.00
2013-9-27,81,68,56,58,54,50,82,62,39,30.16,30.04,6,1,14,0.00
2013-9-28,82,69,56,63,56,-100,89,67,47,30.10,29.97,6,2,18,0.00
2013-9-29,75,66,55,62,54,47,93,68,39,30.06,29.97,7,2,12,0.11
2013-9-30,75,64,54,63,58,50,95,84,60,30.02,29.92,5,1,11,0.01
2013-10-2,79,70,65,70,67,63,96,90,71,30.09,30.00,4,1,9,0.03
2013-10-3,83,74,66,70,67,62,94,80,61,30.01,29.90,5,2,15,0.05
2013-10-4,86,75,67,70,67,62,92,77,56,30.01,29.93,4,2,14,0.01
2013-10-5,78,71,67,71,68,65,94,90,76,29.98,29.82,8,1,19,0.04
2013-10-6,63,56,50,60,45,39,92,70,49,29.87,29.79,7,2,18,0.01
2013-10-7,67,53,44,49,45,41,91,76,47,30.14,29.84,7,2,16,0.01
2013-10-8,75,60,45,53,47,43,93,66,38,30.23,30.14,4,1,13,0.01
2013-10-9,75,61,47,51,48,43,86,64,38,30.22,30.11,4,1,9,0.00
2013-10-10,78,65,52,61,55,48,91,72,49,30.17,30.04,4,0,9,0.00
2013-10-13,71,57,43,47,39,34,88,56,26,30.39,30.19,6,1,13,0.04
2013-10-14,70,58,47,47,42,38,76,58,36,30.37,30.11,7,3,13,0.00
2013-10-15,64,61,57,62,56,47,92,83,66,30.11,29.89,6,2,14,0.06
2013-10-16,57,50,42,52,43,39,89,78,66,30.02,29.95,6,1,13,0.01
2013-10-17,60,50,42,46,42,39,93,78,50,30.01,29.91,5,1,14,0.01
2013-10-18,57,49,41,46,41,38,91,75,57,30.03,29.94,5,1,11,0.01
2013-10-19,55,46,40,41,37,-100,93,73,47,29.98,29.92,8,2,19,0.29
2013-10-20,68,56,39,45,42,35,87,60,39,29.96,29.85,8,3,22,0.01
2013-10-21,54,48,34,45,39,30,90,72,51,30.05,29.91,7,2,15,0.00
2013-10-22,50,41,31,44,36,28,91,81,63,30.05,29.80,7,2,20,0.04
2013-10-23,44,40,37,35,32,28,89,73,54,30.12,29.91,7,3,14,0.03
2013-10-24,43,38,33,34,26,22,86,64,42,30.37,30.10,12,4,21,0.00
2013-10-25,52,43,24,31,27,21,88,56,38,30.49,30.23,4,1,12,0.00
2013-10-26,61,45,36,41,30,-100,72,58,39,30.23,29.97,8,3,19,0.00
2013-10-27,59,43,28,35,30,25,91,62,33,30.13,30.03,3,0,8,0.00
2013-10-28,65,47,32,37,30,-100,84,58,31,30.28,30.07,4,1,8,0.00
2013-10-29,58,50,43,52,42,32,93,73,49,30.29,30.11,4,2,10,0.12
2013-10-30,68,60,53,65,58,51,96,93,85,30.11,29.89,4,2,10,0.15
2013-10-31,66,60,49,62,58,45,95,92,84,29.89,29.34,6,4,20,1.13
2013-11-1,56,49,42,46,43,39,93,80,63,29.83,29.59,5,3,17,0.10
2013-11-2,50,43,36,43,37,-100,93,81,59,30.17,29.82,13,2,21,0.02
2013-11-3,56,43,29,40,33,27,94,72,41,30.31,30.16,4,1,10,0.01
2013-11-4,57,50,44,44,40,36,78,70,57,30.25,30.16,7,3,17,0.00
2013-11-5,61,55,50,51,48,44,90,78,66,30.32,30.05,6,2,18,0.04
2013-11-6,59,49,38,53,46,33,92,88,67,30.22,29.92,11,4,20,0.29
2013-11-7,51,40,30,38,32,27,90,74,55,30.36,30.22,6,2,14,0.01
2013-11-8,54,40,27,34,30,25,92,69,42,30.38,30.09,6,2,14,0.00
2013-11-9,65,52,43,42,36,-100,73,59,41,30.21,30.03,7,3,16,0.00
2013-11-10,51,42,33,37,33,30,87,70,48,30.42,30.21,8,2,14,0.00
2013-11-11,54,41,29,44,35,26,91,79,64,30.45,30.11,12,4,19,0.13
2013-11-12,32,27,21,27,20,17,88,77,64,30.73,30.45,10,5,17,0.01
2013-11-13,41,29,18,23,19,15,89,69,41,30.68,30.30,6,2,14,0.00
2013-11-14,54,41,30,26,23,20,72,52,30,30.30,30.03,8,4,20,0.00
2013-11-15,54,47,41,42,32,26,85,58,47,30.04,29.95,6,3,13,0.00
2013-11-16,63,55,46,59,49,-100,91,84,70,29.96,29.60,11,6,22,0.08
2013-11-17,72,62,46,64,55,40,91,78,44,29.89,29.32,14,8,34,0.08
2013-11-18,51,44,33,41,34,27,87,71,48,30.25,29.89,10,4,18,0.00
2013-11-19,43,36,28,28,27,24,88,70,53,30.32,30.21,7,1,12,0.00